Castleton, Vermont
Current Conditions -  °F | °C
As of 5:35 AM on Saturday 25 Oct 2014 (Local Time) from KRUT Reporting Station
Clear Clear  
Wind Chill: -2°   Ceiling: Unl
Heat Index:   Visibility: 10mi
Dew Point:   Wind: 6mph
Humidity: 100%   Direction: 140°SE
Pressure: 29.8"   Gusts: NA
Location:  43.61°N, 73.18°W
Report Text: KRUT 250935Z 14005KT 10SM CLR 01/01 A2980 RMK AO1
Loading
Personal Weather Stations






























Interactive Weather Map
Tropical Storm Tracking
New forecast layout! Learn more

10-Day Weather Forecast

Advertisements
Track Severe Weather on mobile